Hlavní strana
METAR-TAF:

METAR-TAF

Letiště :

Helsinky, Finsko

Letiště Helsinky-Vantaa

zeměpisná šířka: 60-19N, zeměpisná délka: 024-58E, výška: 51 m

Aktuální stav počasí

Zpráva byla vytvořena před 18 minutami, v 03:20 UTC
Západní vítr 5 kt
Teplota -10°C
Vlhkost vzduchu 85%
Tlak 1017 hPa
Viditelnost 10 km a více
Zataženo ve výšce 4500 ft

METAR: EFHK 230320Z 28005KT 9999 OVC045 M10/M12 Q1017 NOSIG

Čas: 05:38 (03:38 UTC)

Předpověď počasí

Zpráva byla vytvořena před 1 hodinou a 8 minutami, v 02:30 UTC
Předpověď platná od 23 v 03 UTC do 24 v 03 UTC
vítr z různých směrů 2 kt
Viditelnost 10 km a více
Skoro jasno ve výšce 1000 ft
Oblačno až skoro zataženo ve výšce 5000 ft
Dočasný
od 23 v 18 UTC do 24 v 03 UTC
Viditelnost: 4000 m
Oblačno až skoro zataženo ve výšce 1200 ft
slabé sněžení
Změna
od 23 v 19 UTC do 23 v 21 UTC
Jižní vítr 13 kt

TAF: EFHK 230230Z 2303/2403 VRB02KT 9999 FEW010 BKN050 TEMPO 2318/2403 4000 -SN BKN012 BECMG 2319/2321 19013KT

Stav a předpovědi počasí z více než 4 000 letišť (zprávy METAR a TAF).

Červené a žluté tečky na mapě představují dostupné meteorologické stanice.

Když kurzor umístíte na tečku, zobrazí se název stanice.

Pak kliknutím zobrazíte stav a předpověď počasí.

Chcete-li změnit mapu, kliknutím na zelené tlačítko se znaménkem +mapu přiblížíte, kliknutím na zelené tlačítko se znaménkem – mapu oddálíte a kliknutím na zelené šipky přejdete na sousední mapy.


METAR-TAF: